Time;durP1;ratioP1;P1;durP2;ratioP2;P2;SDS_P1;SDS_P2;PMS_P1;PMS_P2;Temp;Humidity;BMP_temperature;BMP_pressure;BME280_temperature;BME280_humidity;BME280_pressure;Samples;Min_cycle;Max_cycle;Signal;HPM_P1;HPM_P2
2021/06/22 00:00:23;;;;;;;4.60;1.58;;;;;;;18.90;71.77;100446.03;4840069;29;20058;-70
2021/06/22 00:02:51;;;;;;;6.18;1.50;;;;;;;18.50;73.32;100450.53;4838962;29;20065;-68
2021/06/22 00:05:20;;;;;;;5.00;1.70;;;;;;;18.76;73.13;100450.56;4824373;29;20049;-68
2021/06/22 00:07:50;;;;;;;5.20;1.77;;;;;;;18.89;72.07;100454.78;4839830;29;20122;-69
2021/06/22 00:10:20;;;;;;;3.30;1.40;;;;;;;18.58;72.99;100463.44;4838927;29;20057;-70
2021/06/22 00:12:48;;;;;;;3.38;1.02;;;;;;;18.64;73.57;100456.34;4839193;29;20050;-68
2021/06/22 00:15:17;;;;;;;4.35;1.45;;;;;;;18.54;73.59;100462.56;4822390;29;20502;-70
2021/06/22 00:17:47;;;;;;;3.00;1.42;;;;;;;18.69;73.16;100461.66;4823686;29;20077;-66
2021/06/22 00:20:15;;;;;;;8.73;1.52;;;;;;;18.79;72.75;100455.44;4807118;29;20548;-70
2021/06/22 00:22:43;;;;;;;4.28;1.30;;;;;;;18.76;72.97;100448.59;4823297;29;20210;-71
2021/06/22 00:25:14;;;;;;;4.68;1.70;;;;;;;18.78;72.65;100451.00;4838736;29;20065;-71
2021/06/22 00:27:44;;;;;;;8.15;1.55;;;;;;;18.94;72.34;100449.69;4822509;29;20064;-69
2021/06/22 00:30:12;;;;;;;5.10;1.30;;;;;;;19.06;72.12;100460.63;4807459;29;20049;-72
2021/06/22 00:37:17;;;;;;;4.30;1.30;;;;;;;18.99;73.34;100451.34;4838616;29;20045;-72
2021/06/22 00:39:46;;;;;;;3.35;1.17;;;;;;;18.70;75.39;100454.88;4838360;29;20069;-69
2021/06/22 00:42:13;;;;;;;3.38;1.23;;;;;;;18.96;74.27;100460.47;4838146;29;20054;-68
2021/06/22 00:44:45;;;;;;;4.40;1.55;;;;;;;19.15;74.02;100451.97;4821953;29;20049;-72
2021/06/22 00:51:36;;;;;;;5.28;1.70;;;;;;;19.23;73.46;100450.88;4839624;29;20069;-72
2021/06/22 00:54:05;;;;;;;7.43;1.75;;;;;;;19.18;73.71;100456.03;4822094;29;20046;-70
2021/06/22 00:56:38;;;;;;;6.43;1.50;;;;;;;19.16;74.12;100458.38;4821908;29;20054;-71
2021/06/22 00:59:05;;;;;;;5.18;1.55;;;;;;;19.22;73.79;100462.44;4822058;29;20054;-71
2021/06/22 01:01:34;;;;;;;4.57;1.45;;;;;;;19.05;74.38;100466.59;4840375;29;20049;-70
2021/06/22 01:04:03;;;;;;;5.53;1.75;;;;;;;19.04;74.59;100453.81;4826215;29;20046;-74
2021/06/22 01:06:33;;;;;;;5.10;1.52;;;;;;;19.21;73.66;100446.88;4825343;29;20062;-74
2021/06/22 01:09:09;;;;;;;5.65;1.60;;;;;;;19.21;74.29;100446.88;4840918;29;20061;-72
2021/06/22 01:11:37;;;;;;;4.67;1.60;;;;;;;19.26;73.34;100444.56;4824733;29;20054;-70
2021/06/22 01:14:07;;;;;;;;;;;;;;;19.18;73.21;100445.63;4887262;29;20054;-71
2021/06/22 01:16:34;;;;;;;5.28;1.25;;;;;;;19.31;72.59;100441.47;4904483;29;20264;-69
2021/06/22 01:19:05;;;;;;;4.72;1.50;;;;;;;19.53;71.92;100443.34;4826464;29;20154;-69
2021/06/22 01:21:55;;;;;;;6.10;1.40;;;;;;;19.72;71.38;100447.97;4824928;29;20058;-69
2021/06/22 01:24:35;;;;;;;;;;;;;;;19.37;71.51;100445.53;4813393;29;20054;-69
2021/06/22 01:27:03;;;;;;;10.85;2.25;;;;;;;19.51;71.17;100444.94;4841229;29;19928;-69
2021/06/22 01:29:31;;;;;;;4.25;1.50;;;;;;;19.46;71.10;100431.28;4826098;29;20054;-71
2021/06/22 01:31:59;;;;;;;3.28;1.50;;;;;;;18.91;73.05;100441.25;4824813;29;20053;-68
2021/06/22 01:34:29;;;;;;;6.22;1.58;;;;;;;18.81;73.82;100450.28;4841246;29;20068;-69
2021/06/22 01:36:59;;;;;;;7.28;2.00;;;;;;;18.73;72.45;100440.97;4837799;29;20066;-70
2021/06/22 01:39:34;;;;;;;3.63;1.60;;;;;;;19.05;72.24;100439.50;4839421;29;20054;-69
2021/06/22 01:42:04;;;;;;;5.13;1.73;;;;;;;19.42;70.68;100445.19;4841118;29;20506;-71
2021/06/22 01:44:35;;;;;;;6.97;1.70;;;;;;;19.58;70.13;100433.84;4825209;29;20045;-69
2021/06/22 01:47:07;;;;;;;4.35;1.77;;;;;;;19.50;70.17;100426.53;4840862;29;20057;-70
2021/06/22 01:49:35;;;;;;;7.60;2.15;;;;;;;19.74;68.92;100431.63;4842058;29;20054;-70
2021/06/22 01:52:02;;;;;;;8.70;2.00;;;;;;;19.65;69.03;100423.53;4841051;29;20065;-70
2021/06/22 01:54:33;;;;;;;4.47;2.08;;;;;;;19.28;70.43;100430.22;4839658;29;20058;-69
2021/06/22 01:57:03;;;;;;;4.05;2.40;;;;;;;19.22;70.95;100428.94;4842482;29;20069;-69
2021/06/22 01:59:38;;;;;;;5.88;2.08;;;;;;;19.19;71.06;100433.28;4901370;29;20395;-69
2021/06/22 02:02:14;;;;;;;5.97;2.20;;;;;;;19.29;70.71;100432.63;4839327;29;20058;-69
2021/06/22 02:05:00;;;;;;;4.43;2.10;;;;;;;19.55;70.52;100438.19;4903729;29;20295;-70
2021/06/22 02:07:27;;;;;;;8.25;2.33;;;;;;;19.82;69.07;100434.09;4840621;29;20064;-70
2021/06/22 02:10:04;;;;;;;6.13;2.30;;;;;;;19.71;69.25;100433.19;4838838;29;20062;-67
2021/06/22 02:13:05;;;;;;;8.75;2.90;;;;;;;19.45;70.54;100432.47;4772739;30;20063;-68
2021/06/22 02:15:34;;;;;;;4.75;2.50;;;;;;;18.78;73.63;100437.88;4769429;30;20547;-69
2021/06/22 02:18:05;;;;;;;4.78;2.88;;;;;;;18.81;74.30;100445.47;4784158;30;20063;-68
2021/06/22 02:20:35;;;;;;;3.83;2.42;;;;;;;18.92;74.42;100445.66;4770852;29;20508;-68
2021/06/22 02:23:03;;;;;;;5.05;2.17;;;;;;;18.97;74.25;100448.09;4755765;29;20388;-68
2021/06/22 02:25:32;;;;;;;4.90;2.70;;;;;;;19.14;73.61;100453.16;4769096;30;20063;-68
2021/06/22 02:28:07;;;;;;;10.63;3.03;;;;;;;18.63;75.76;100443.59;4755522;29;20055;-68
2021/06/22 02:30:36;;;;;;;9.27;3.55;;;;;;;18.64;76.10;100439.63;4784939;29;20060;-70
2021/06/22 02:33:04;;;;;;;9.57;3.25;;;;;;;18.91;75.34;100441.25;4769176;30;20052;-67
2021/06/22 02:35:32;;;;;;;6.50;2.80;;;;;;;19.13;74.17;100431.19;4769648;29;20084;-72
2021/06/22 02:38:06;;;;;;;3.90;2.10;;;;;;;19.28;74.03;100438.59;4783811;30;20063;-70
2021/06/22 02:40:35;;;;;;;6.00;2.03;;;;;;;19.56;72.99;100428.59;4768973;30;20058;-69
2021/06/22 02:43:04;;;;;;;7.47;1.95;;;;;;;19.29;73.16;100431.81;4768890;30;20060;-68
2021/06/22 02:45:34;;;;;;;5.35;1.80;;;;;;;19.28;73.43;100436.63;4739421;30;20052;-69
2021/06/22 02:48:11;;;;;;;4.38;2.17;;;;;;;19.22;74.21;100435.31;4780367;29;20070;-69
2021/06/22 02:50:40;;;;;;;3.20;1.80;;;;;;;19.53;72.65;100440.56;4839914;29;20050;-70
2021/06/22 02:53:12;;;;;;;8.68;2.13;;;;;;;19.25;73.02;100442.94;4839118;29;20050;-69
2021/06/22 02:55:41;;;;;;;5.47;2.15;;;;;;;19.37;73.80;100444.75;4824030;29;20058;-69
2021/06/22 02:58:12;;;;;;;6.20;2.30;;;;;;;19.62;72.33;100437.47;4824791;29;20054;-72
2021/06/22 03:00:43;;;;;;;4.72;1.88;;;;;;;19.72;71.58;100442.38;4885748;29;20073;-70
2021/06/22 03:03:11;;;;;;;5.38;2.70;;;;;;;19.23;73.24;100442.50;4871392;29;20298;-70
2021/06/22 03:05:43;;;;;;;4.20;2.28;;;;;;;19.57;72.54;100447.00;4839561;29;20584;-72
2021/06/22 03:08:18;;;;;;;8.23;2.88;;;;;;;19.48;72.76;100448.47;4838932;29;20435;-73
2021/06/22 03:10:46;;;;;;;7.72;3.17;;;;;;;19.41;72.76;100448.38;4825179;29;20174;-73
2021/06/22 03:13:14;;;;;;;7.65;3.80;;;;;;;19.42;72.11;100442.41;4840012;29;20053;-69
2021/06/22 03:15:44;;;;;;;10.80;4.70;;;;;;;19.20;73.48;100462.00;4838534;29;20065;-72
2021/06/22 03:18:11;;;;;;;8.02;5.72;;;;;;;18.98;75.36;100461.72;4838417;29;20054;-70
2021/06/22 03:20:45;;;;;;;10.05;5.85;;;;;;;18.58;77.93;100457.88;4837709;29;20418;-70
2021/06/22 03:23:14;;;;;;;10.38;5.72;;;;;;;19.04;76.34;100456.59;4838445;29;20069;-70
2021/06/22 03:25:42;;;;;;;12.00;7.07;;;;;;;18.87;76.75;100457.13;4839315;29;20054;-70
2021/06/22 03:28:09;;;;;;;13.73;6.88;;;;;;;19.06;76.41;100449.47;4840832;29;20049;-74
2021/06/22 03:31:01;;;;;;;12.75;7.50;;;;;;;18.75;77.82;100446.19;4839649;29;20042;-74
2021/06/22 03:33:28;;;;;;;10.75;7.03;;;;;;;18.78;77.84;100445.44;4838162;29;20168;-72
2021/06/22 03:35:56;;;;;;;10.55;7.22;;;;;;;18.93;77.47;100452.84;4840612;29;20072;-74
2021/06/22 03:38:24;;;;;;;12.35;7.80;;;;;;;19.09;76.62;100459.06;4838052;29;20053;-74
2021/06/22 03:40:59;;;;;;;10.60;7.20;;;;;;;19.10;75.94;100466.28;4838805;29;20054;-69
2021/06/22 03:43:27;;;;;;;11.27;6.13;;;;;;;19.25;75.71;100465.28;4838164;29;20057;-70
2021/06/22 03:45:56;;;;;;;8.90;6.00;;;;;;;19.34;75.14;100470.63;4824311;29;20054;-71
2021/06/22 03:48:29;;;;;;;12.02;5.97;;;;;;;19.16;75.11;100464.75;4837536;29;20053;-69
2021/06/22 03:50:57;;;;;;;11.40;7.20;;;;;;;19.21;75.42;100470.03;4902892;29;20069;-71
2021/06/22 03:53:25;;;;;;;14.98;6.40;;;;;;;19.14;76.03;100475.50;4902392;29;20082;-70
2021/06/22 03:55:53;;;;;;;10.27;6.93;;;;;;;19.20;75.92;100465.59;4839284;29;20406;-73
2021/06/22 03:58:38;;;;;;;9.15;5.90;;;;;;;19.13;76.01;100468.31;4840731;29;20062;-71
2021/06/22 04:01:07;;;;;;;14.68;6.18;;;;;;;19.24;75.43;100472.06;4902187;29;20068;-72
2021/06/22 04:03:38;;;;;;;12.25;5.43;;;;;;;19.46;74.99;100471.19;4887411;29;20230;-69
2021/06/22 04:06:24;;;;;;;8.70;6.03;;;;;;;19.51;74.22;100472.88;4838173;29;20050;-70
2021/06/22 04:09:01;;;;;;;8.90;5.78;;;;;;;19.36;74.90;100477.44;4837133;29;20061;-69
2021/06/22 04:11:29;;;;;;;8.07;6.13;;;;;;;19.40;75.22;100478.31;4838619;29;20057;-71
2021/06/22 04:13:59;;;;;;;9.40;5.97;;;;;;;19.43;74.62;100482.31;4837930;29;20049;-70
2021/06/22 04:16:34;;;;;;;8.98;6.03;;;;;;;19.49;74.87;100486.41;4901849;29;20379;-68
2021/06/22 04:19:02;;;;;;;8.13;5.93;;;;;;;19.63;74.48;100490.16;4837787;29;20509;-68
2021/06/22 04:21:35;;;;;;;9.02;6.07;;;;;;;19.72;73.56;100485.09;4836940;29;20058;-68
2021/06/22 04:24:02;;;;;;;10.50;7.00;;;;;;;19.47;74.97;100491.56;4836789;29;20503;-72
2021/06/22 04:26:31;;;;;;;11.25;6.10;;;;;;;19.42;75.56;100495.47;4838884;29;20058;-72
2021/06/22 04:28:58;;;;;;;12.45;6.95;;;;;;;19.64;74.10;100497.38;4838908;29;20050;-72
2021/06/22 04:31:26;;;;;;;8.45;5.53;;;;;;;20.01;72.73;100501.03;4838650;29;20057;-71
2021/06/22 04:33:53;;;;;;;8.65;6.43;;;;;;;19.86;72.76;100495.66;4838600;29;20057;-71
2021/06/22 04:36:21;;;;;;;10.15;5.78;;;;;;;19.93;72.81;100495.72;4839036;29;20057;-72
2021/06/22 04:38:51;;;;;;;8.55;5.72;;;;;;;19.69;74.09;100490.66;4838517;29;20066;-71
2021/06/22 04:41:22;;;;;;;7.43;4.97;;;;;;;19.81;73.73;100496.81;4838701;29;20477;-72
2021/06/22 04:43:49;;;;;;;8.98;5.05;;;;;;;20.08;71.91;100498.31;4838674;29;20058;-72
2021/06/22 04:46:17;;;;;;;10.98;3.50;;;;;;;19.95;72.13;100498.97;4838691;29;20156;-71
2021/06/22 04:48:45;;;;;;;8.80;3.28;;;;;;;20.04;71.47;100496.66;4839822;29;20065;-69
2021/06/22 04:55:40;;;;;;;5.40;2.50;;;;;;;19.90;71.42;100502.09;4838483;29;20041;-72
2021/06/22 04:58:09;;;;;;;6.43;2.47;;;;;;;20.15;70.52;100506.78;4838700;29;20058;-72
2021/06/22 05:00:36;;;;;;;8.10;2.47;;;;;;;20.22;69.49;100508.09;4837157;29;20054;-72
2021/06/22 05:03:04;;;;;;;5.95;2.67;;;;;;;19.99;70.25;100511.00;4838089;29;20069;-73
2021/06/22 05:09:56;;;;;;;8.32;3.63;;;;;;;19.84;71.49;100503.63;4839555;29;20046;-72
2021/06/22 05:12:24;;;;;;;10.98;3.90;;;;;;;19.62;72.86;100502.53;4901463;29;20058;-70
2021/06/22 05:14:51;;;;;;;19.13;8.20;;;;;;;19.74;72.88;100501.50;4837614;29;20054;-71
2021/06/22 05:17:19;;;;;;;7.85;4.35;;;;;;;19.82;72.31;100503.22;4837611;29;20061;-72
2021/06/22 05:19:46;;;;;;;8.05;4.53;;;;;;;19.68;72.83;100514.97;4838110;29;20501;-70
2021/06/22 05:22:14;;;;;;;11.20;4.75;;;;;;;19.46;72.95;100504.72;4839333;29;20050;-70
2021/06/22 05:24:42;;;;;;;7.70;4.70;;;;;;;19.34;73.73;100504.94;4839214;29;20429;-68
2021/06/22 05:27:12;;;;;;;15.60;4.45;;;;;;;19.34;74.42;100512.50;4837840;29;20054;-70
2021/06/22 05:29:41;;;;;;;9.02;4.72;;;;;;;19.21;74.35;100514.72;4838952;29;20068;-69
2021/06/22 05:32:08;;;;;;;9.18;4.72;;;;;;;18.99;75.47;100519.16;4837278;29;20053;-69
2021/06/22 05:34:36;;;;;;;8.48;4.82;;;;;;;18.89;76.10;100525.38;4836760;29;20046;-71
2021/06/22 05:39:05;;;;;;;12.73;4.68;;;;;;;18.82;76.40;100525.25;4833932;29;20065;-69
2021/06/22 05:41:36;;;;;;;9.82;4.78;;;;;;;19.13;75.86;100523.31;4856316;29;20060;-72
2021/06/22 05:44:04;;;;;;;7.00;3.92;;;;;;;19.18;75.30;100521.03;4857070;29;20061;-72
2021/06/22 05:46:32;;;;;;;12.10;4.65;;;;;;;19.01;76.52;100532.72;4839727;29;20072;-72
2021/06/22 05:49:00;;;;;;;11.35;5.43;;;;;;;19.13;76.65;100528.91;4826769;29;20058;-70
2021/06/22 05:55:56;;;;;;;10.35;4.75;;;;;;;19.45;75.65;100531.06;4859344;29;20038;-70
2021/06/22 05:58:23;;;;;;;9.10;5.07;;;;;;;19.55;75.31;100538.78;4842377;29;20072;-71
2021/06/22 06:00:50;;;;;;;10.70;5.63;;;;;;;19.58;74.64;100542.81;4860317;29;20053;-73
2021/06/22 06:03:18;;;;;;;10.85;5.40;;;;;;;19.41;75.34;100541.38;4859021;29;20425;-71
2021/06/22 06:10:10;;;;;;;11.73;6.50;;;;;;;19.45;75.93;100547.00;4859297;29;20044;-71
2021/06/22 06:12:38;;;;;;;7.90;5.38;;;;;;;19.66;75.61;100552.91;4858937;29;20049;-74
2021/06/22 06:15:09;;;;;;;10.32;5.72;;;;;;;19.69;75.95;100555.75;4829073;29;20509;-70
2021/06/22 06:17:37;;;;;;;11.73;5.93;;;;;;;20.19;74.52;100550.81;4859088;29;20505;-72
2021/06/22 06:20:07;;;;;;;8.23;5.78;;;;;;;19.99;74.36;100550.94;4859208;29;20050;-72
2021/06/22 06:27:06;;;;;;;9.60;6.15;;;;;;;19.83;74.99;100560.72;4858123;29;20050;-72
2021/06/22 06:29:53;;;;;;;12.52;6.05;;;;;;;19.90;75.04;100558.00;4859781;29;20054;-73
2021/06/22 06:32:21;;;;;;;9.07;5.90;;;;;;;20.03;74.55;100562.97;4858835;29;20489;-70
2021/06/22 06:34:48;;;;;;;14.23;6.82;;;;;;;20.02;75.34;100566.97;4859818;29;20049;-70
2021/06/22 06:41:52;;;;;;;17.90;10.52;;;;;;;20.12;74.96;100565.47;4840409;29;20061;-74
2021/06/22 06:44:20;;;;;;;17.10;9.73;;;;;;;20.48;74.44;100561.13;4840077;29;20135;-68
2021/06/22 06:46:47;;;;;;;12.48;8.80;;;;;;;20.40;74.48;100557.44;4824324;29;20405;-70
2021/06/22 06:49:15;;;;;;;19.77;8.75;;;;;;;20.61;73.44;100562.44;4839489;29;20216;-74
2021/06/22 06:56:18;;;;;;;16.83;9.20;;;;;;;20.95;73.58;100562.00;4840370;29;20046;-67
2021/06/22 06:58:46;;;;;;;13.13;10.73;;;;;;;20.95;72.33;100570.41;4839090;29;20520;-68
2021/06/22 07:01:13;;;;;;;22.92;10.35;;;;;;;20.83;72.08;100567.09;4839469;29;20054;-72
2021/06/22 07:03:44;;;;;;;14.30;9.02;;;;;;;20.80;72.72;100573.47;4824678;29;20062;-77
2021/06/22 07:06:12;;;;;;;17.00;9.90;;;;;;;20.82;72.08;100574.66;4840444;29;20108;-76
2021/06/22 07:08:41;;;;;;;14.43;8.45;;;;;;;20.88;72.86;100580.72;4840259;29;20060;-70
2021/06/22 07:11:09;;;;;;;13.70;9.27;;;;;;;20.81;72.25;100575.06;4840198;29;20472;-70
2021/06/22 07:13:36;;;;;;;12.45;8.60;;;;;;;20.94;70.92;100579.97;4821208;29;20062;-73
2021/06/22 07:16:05;;;;;;;15.57;8.43;;;;;;;20.90;70.97;100586.75;4839296;29;20050;-68
2021/06/22 07:18:33;;;;;;;13.48;8.75;;;;;;;20.60;71.74;100584.06;4840625;29;20046;-66
2021/06/22 07:21:01;;;;;;;14.35;8.10;;;;;;;20.50;72.57;100592.34;4839886;29;20502;-75
2021/06/22 07:27:55;;;;;;;16.27;7.85;;;;;;;20.77;71.75;100574.22;4840502;29;20490;-72
2021/06/22 07:30:24;;;;;;;13.65;8.43;;;;;;;20.71;71.60;100589.75;4840030;29;20050;-72
2021/06/22 07:32:52;;;;;;;11.43;7.10;;;;;;;20.75;71.76;100582.19;4840962;29;20061;-70
2021/06/22 07:35:20;;;;;;;13.23;8.05;;;;;;;21.06;71.03;100570.53;4839740;29;20413;-67
2021/06/22 07:37:48;;;;;;;19.13;7.63;;;;;;;21.06;70.52;100576.13;4839470;29;20054;-80
2021/06/22 07:40:16;;;;;;;13.52;8.32;;;;;;;21.08;70.37;100571.72;4829721;29;20502;-67
2021/06/22 07:42:44;;;;;;;14.02;8.13;;;;;;;21.05;70.59;100580.91;4902470;29;20058;-64
2021/06/22 07:45:12;;;;;;;14.68;7.97;;;;;;;20.96;71.43;100574.81;4840414;29;20050;-72
2021/06/22 07:47:39;;;;;;;10.27;7.15;;;;;;;21.21;69.42;100580.66;4838542;29;20054;-66
2021/06/22 07:50:08;;;;;;;15.85;8.07;;;;;;;21.26;69.97;100588.69;4839955;29;20062;-68
2021/06/22 07:52:36;;;;;;;12.07;6.93;;;;;;;21.35;69.71;100585.56;4841215;29;20068;-74
2021/06/22 07:55:05;;;;;;;10.23;7.20;;;;;;;21.70;68.73;100580.19;4844329;29;20398;-75
2021/06/22 07:57:32;;;;;;;14.38;6.93;;;;;;;21.79;67.68;100584.25;4842696;29;20068;-68
2021/06/22 08:00:26;;;;;;;10.52;7.03;;;;;;;22.03;67.00;100597.63;4846406;29;20049;-74
2021/06/22 08:02:54;;;;;;;18.58;10.10;;;;;;;21.94;66.92;100593.56;4843750;29;20403;-71
2021/06/22 08:05:22;;;;;;;16.98;9.55;;;;;;;21.94;66.42;100601.97;4845355;29;20057;-67
2021/06/22 08:07:51;;;;;;;15.13;6.88;;;;;;;22.18;65.69;100592.88;4840954;29;20065;-77
2021/06/22 08:10:18;;;;;;;12.23;6.10;;;;;;;22.19;64.42;100597.31;4841117;29;20076;-71
2021/06/22 08:12:45;;;;;;;9.80;5.88;;;;;;;22.06;64.43;100601.63;4840970;29;20510;-71
2021/06/22 08:15:13;;;;;;;13.27;6.25;;;;;;;21.97;64.31;100604.81;4887536;29;20474;-77
2021/06/22 08:17:41;;;;;;;10.43;6.20;;;;;;;22.10;64.44;100603.28;4839470;29;20057;-66
2021/06/22 08:20:09;;;;;;;10.38;5.30;;;;;;;21.71;65.52;100605.03;4839582;29;20061;-73
2021/06/22 08:22:37;;;;;;;11.48;5.45;;;;;;;21.58;65.22;100605.75;4839611;29;20065;-76
2021/06/22 08:25:06;;;;;;;10.35;5.68;;;;;;;21.87;64.72;100605.56;4839224;29;20053;-78
2021/06/22 08:27:34;;;;;;;12.20;6.60;;;;;;;21.91;64.60;100608.38;4838073;29;20490;-81
2021/06/22 08:30:04;;;;;;;12.52;9.38;;;;;;;21.32;67.86;100614.34;4822222;29;20054;-74
2021/06/22 08:32:32;;;;;;;18.42;10.90;;;;;;;20.85;69.61;100604.69;4838524;29;20050;-72
2021/06/22 08:34:59;;;;;;;14.75;10.60;;;;;;;20.80;69.74;100619.03;4837933;29;20042;-77
2021/06/22 08:37:27;;;;;;;19.10;10.63;;;;;;;20.76;70.27;100615.41;4901385;29;20165;-71
2021/06/22 08:39:54;;;;;;;16.92;11.38;;;;;;;20.77;69.94;100614.22;4838429;29;20054;-65
2021/06/22 08:42:23;;;;;;;19.23;12.50;;;;;;;20.55;70.74;100614.38;4839333;29;20089;-68
2021/06/22 08:44:51;;;;;;;16.42;12.85;;;;;;;20.79;70.63;100620.25;4840810;29;20386;-72
2021/06/22 08:47:23;;;;;;;16.52;14.52;;;;;;;20.73;70.00;100615.38;4839284;29;20072;-70
2021/06/22 08:49:52;;;;;;;19.90;13.90;;;;;;;20.69;70.25;100614.53;4839638;29;20482;-67
2021/06/22 08:52:23;;;;;;;18.42;13.65;;;;;;;20.72;70.08;100613.75;4840099;29;20050;-76
2021/06/22 08:59:29;;;;;;;15.15;12.70;;;;;;;21.19;69.25;100613.84;4837736;29;20501;-74
2021/06/22 09:01:56;;;;;;;20.15;13.45;;;;;;;20.68;71.80;100621.31;4820969;29;20069;-67
2021/06/22 09:04:24;;;;;;;21.27;13.80;;;;;;;20.62;73.17;100620.88;4839111;29;20136;-66
2021/06/22 09:06:52;;;;;;;21.15;16.65;;;;;;;20.61;73.98;100621.22;4838281;29;20401;-68
2021/06/22 09:09:19;;;;;;;19.77;14.90;;;;;;;20.23;75.37;100619.59;4839392;29;20069;-69
2021/06/22 09:12:04;;;;;;;22.50;16.05;;;;;;;20.27;75.21;100622.44;4821798;29;20077;-70
2021/06/22 09:14:34;;;;;;;21.48;15.68;;;;;;;20.40;76.07;100630.19;4837515;29;20065;-75
2021/06/22 09:17:03;;;;;;;23.33;16.98;;;;;;;20.28;76.32;100635.22;4837806;29;20053;-78
2021/06/22 09:19:32;;;;;;;26.97;19.50;;;;;;;19.93;78.05;100641.13;4841067;29;20062;-71
2021/06/22 09:22:17;;;;;;;23.67;18.63;;;;;;;19.78;77.94;100631.75;4852491;29;20061;-68
2021/06/22 09:25:08;;;;;;;20.58;16.58;;;;;;;19.63;77.45;100635.47;4903470;29;20046;-64
2021/06/22 09:27:52;;;;;;;20.88;15.30;;;;;;;19.44;78.94;100646.75;4841678;29;20050;-66
2021/06/22 09:30:48;;;;;;;21.73;16.02;;;;;;;19.58;79.33;100643.41;4853860;29;20057;-65
2021/06/22 09:33:24;;;;;;;17.80;14.50;;;;;;;19.93;77.65;100636.34;4902655;29;20448;-64
2021/06/22 09:36:05;;;;;;;19.33;15.68;;;;;;;20.04;77.16;100636.47;4840965;29;20390;-69
2021/06/22 09:42:59;;;;;;;20.63;16.98;;;;;;;19.18;79.19;100643.09;4840571;29;20402;-64
2021/06/22 09:45:29;;;;;;;20.80;17.55;;;;;;;19.22;79.62;100646.75;4823476;29;20069;-64
2021/06/22 09:48:00;;;;;;;28.20;18.35;;;;;;;19.23;79.70;100640.00;4824172;29;20054;-71
2021/06/22 09:50:40;;;;;;;25.15;20.80;;;;;;;19.41;78.47;100646.69;4825467;29;20494;-67
2021/06/22 09:53:29;;;;;;;21.77;18.92;;;;;;;18.96;80.02;100664.25;4824663;29;20398;-67
2021/06/22 09:55:58;;;;;;;24.58;18.05;;;;;;;19.04;79.23;100654.81;4827126;29;20062;-69
2021/06/22 09:58:42;;;;;;;22.17;18.27;;;;;;;19.00;80.02;100654.75;4842054;29;20521;-73
2021/06/22 10:01:34;;;;;;;24.83;19.25;;;;;;;18.68;80.46;100660.91;4846066;29;20102;-71
2021/06/22 10:04:16;;;;;;;23.88;19.05;;;;;;;18.63;80.60;100678.78;4827087;29;20069;-72
2021/06/22 10:06:49;;;;;;;21.55;18.73;;;;;;;19.05;79.51;100692.75;4844587;29;20387;-74
2021/06/22 10:13:41;;;;;;;24.27;18.92;;;;;;;18.67;80.76;100707.53;4840071;29;20065;-68
2021/06/22 10:16:23;;;;;;;24.75;21.67;;;;;;;18.72;82.62;100720.41;4842926;29;20401;-74
2021/06/22 10:18:51;;;;;;;31.30;22.45;;;;;;;18.69;84.21;100726.72;4841664;29;20054;-77
2021/06/22 10:21:18;;;;;;;27.85;23.25;;;;;;;18.41;85.12;100734.50;4824597;29;20054;-69
2021/06/22 10:23:45;;;;;;;26.83;23.05;;;;;;;18.29;87.13;100723.44;4840714;29;20065;-66
2021/06/22 10:26:13;;;;;;;34.33;22.80;;;;;;;17.82;87.99;100735.47;4824845;29;20061;-64
2021/06/22 10:28:44;;;;;;;62.78;32.70;;;;;;;17.50;90.72;100749.78;4809043;29;20470;-65
2021/06/22 10:31:12;;;;;;;143.80;70.05;;;;;;;17.95;90.91;100755.69;4808987;29;20042;-68
2021/06/22 10:33:39;;;;;;;65.60;39.17;;;;;;;18.17;89.66;100748.63;4808491;29;20050;-68
2021/06/22 10:36:07;;;;;;;120.72;61.53;;;;;;;17.89;90.91;100754.34;4839859;29;20062;-73
2021/06/22 10:38:39;;;;;;;25.92;19.00;;;;;;;17.50;90.72;100764.53;4840075;29;20054;-68
2021/06/22 10:41:08;;;;;;;24.55;18.55;;;;;;;17.22;92.69;100768.50;4826851;29;20500;-76
2021/06/22 10:43:38;;;;;;;17.88;12.88;;;;;;;16.66;94.63;100768.53;4859960;29;20054;-69
2021/06/22 10:46:15;;;;;;;14.15;10.95;;;;;;;16.69;94.05;100778.94;4858681;29;20049;-65
2021/06/22 10:48:44;;;;;;;17.88;13.15;;;;;;;16.66;96.11;100784.41;4859710;29;20389;-68
2021/06/22 10:51:39;;;;;;;19.30;13.20;;;;;;;16.61;96.14;100781.88;4857927;29;20054;-73
2021/06/22 10:54:07;;;;;;;18.52;13.50;;;;;;;16.60;96.73;100772.69;4857985;29;20056;-70
2021/06/22 10:56:41;;;;;;;16.35;11.48;;;;;;;16.20;97.49;100777.38;4857868;29;20045;-69
2021/06/22 10:59:12;;;;;;;16.00;11.95;;;;;;;16.22;99.65;100752.84;4858949;29;20527;-72
2021/06/22 11:01:59;;;;;;;16.83;11.93;;;;;;;16.14;100.00;100764.09;4842181;29;20080;-65
2021/06/22 11:04:28;;;;;;;15.00;11.30;;;;;;;16.11;100.00;100762.81;4842189;29;20058;-66
2021/06/22 11:07:09;;;;;;;18.95;12.23;;;;;;;16.21;100.00;100769.88;4858903;29;20054;-68
2021/06/22 11:09:36;;;;;;;16.27;10.95;;;;;;;16.21;100.00;100784.59;4826714;29;20050;-66
2021/06/22 11:12:19;;;;;;;14.45;11.13;;;;;;;16.06;100.00;100806.69;4859596;29;20054;-75
2021/06/22 11:14:59;;;;;;;15.98;12.10;;;;;;;15.96;100.00;100809.94;4858073;29;20049;-67
2021/06/22 11:17:41;;;;;;;16.48;11.77;;;;;;;16.30;100.00;100804.69;4858822;29;20428;-72
2021/06/22 11:20:14;;;;;;;15.45;11.43;;;;;;;16.18;100.00;100823.38;4841079;29;20061;-72
2021/06/22 11:23:00;;;;;;;14.07;10.98;;;;;;;16.40;100.00;100815.38;4857602;29;20516;-69
2021/06/22 11:29:55;;;;;;;13.82;9.90;;;;;;;16.16;100.00;100828.47;4858678;29;20057;-69
2021/06/22 11:32:32;;;;;;;12.88;9.77;;;;;;;16.30;100.00;100826.16;4857828;29;20053;-70
2021/06/22 11:34:59;;;;;;;10.43;8.10;;;;;;;16.23;99.84;100831.47;4841191;29;20219;-70
2021/06/22 11:37:27;;;;;;;9.20;7.65;;;;;;;16.29;99.89;100824.50;4826412;29;20060;-71
2021/06/22 11:40:05;;;;;;;10.85;8.00;;;;;;;16.49;99.27;100818.84;4861299;29;20517;-73
2021/06/22 11:47:05;;;;;;;9.65;6.50;;;;;;;16.29;97.91;100811.44;4916045;29;20385;-74
2021/06/22 11:49:49;;;;;;;8.82;6.68;;;;;;;16.11;99.60;100804.50;4916652;29;20048;-75
2021/06/22 11:52:18;;;;;;;11.25;6.90;;;;;;;15.97;99.83;100808.78;4916636;29;20051;-79
2021/06/22 11:54:46;;;;;;;11.23;7.30;;;;;;;16.27;99.75;100797.06;4917078;29;20052;-82
2021/06/22 12:01:48;;;;;;;9.18;6.60;;;;;;;15.81;99.94;100833.66;4898438;29;20052;-73
2021/06/22 12:04:19;;;;;;;10.35;6.38;;;;;;;16.07;100.00;100830.56;4899505;29;20040;-77
2021/06/22 12:06:52;;;;;;;10.13;6.65;;;;;;;16.26;99.51;100834.38;4915500;29;20063;-77
2021/06/22 12:09:21;;;;;;;9.68;5.65;;;;;;;15.99;98.53;100823.94;4900439;29;20170;-72
2021/06/22 12:16:29;;;;;;;7.60;4.97;;;;;;;15.89;97.52;100826.38;4914976;29;20048;-69
2021/06/22 12:19:02;;;;;;;7.10;4.85;;;;;;;15.61;96.76;100835.38;4915734;29;20052;-71
2021/06/22 12:21:30;;;;;;;8.30;5.32;;;;;;;15.54;98.06;100829.56;4914261;29;20067;-70
2021/06/22 12:24:11;;;;;;;10.02;5.35;;;;;;;15.82;97.76;100845.56;4914618;29;20067;-76
2021/06/22 12:26:40;;;;;;;8.30;4.93;;;;;;;15.86;96.10;100850.09;4915602;29;20064;-71
2021/06/22 12:29:37;;;;;;;7.97;4.90;;;;;;;15.50;97.00;100845.28;4916010;29;20077;-72
2021/06/22 12:32:09;;;;;;;7.32;5.03;;;;;;;15.52;98.32;100851.31;4823329;29;20510;-71
2021/06/22 12:34:38;;;;;;;8.00;5.80;;;;;;;15.52;98.56;100864.38;4857392;29;20064;-71
2021/06/22 12:37:20;;;;;;;8.30;5.17;;;;;;;15.57;97.92;100856.63;4841624;29;20068;-73
2021/06/22 12:39:49;;;;;;;7.63;4.40;;;;;;;15.69;96.25;100864.22;4842178;29;20827;-70
2021/06/22 12:42:21;;;;;;;9.05;4.68;;;;;;;15.55;95.75;100861.72;4856462;29;20412;-68
2021/06/22 12:44:49;;;;;;;7.30;4.80;;;;;;;15.61;95.75;100863.13;4845409;29;20066;-71
2021/06/22 12:47:16;;;;;;;7.90;5.00;;;;;;;15.73;95.43;100865.13;4781893;30;20063;-70
2021/06/22 12:49:44;;;;;;;8.63;4.43;;;;;;;15.66;95.42;100865.69;4767036;30;20195;-69
2021/06/22 12:52:13;;;;;;;7.47;4.32;;;;;;;15.76;94.73;100865.25;4766763;30;20134;-72
2021/06/22 12:54:43;;;;;;;11.38;4.75;;;;;;;15.88;93.51;100883.09;4767192;29;20479;-70